Time;durP1;ratioP1;P1;durP2;ratioP2;P2;SDS_P1;SDS_P2;PMS_P1;PMS_P2;Temp;Humidity;BMP_temperature;BMP_pressure;BME280_temperature;BME280_humidity;BME280_pressure;Samples;Min_cycle;Max_cycle;Signal;HPM_P1;HPM_P2
2021/05/16 00:00:00;;;;;;;6.65;2.50;;;27.10;26.90;;;;;;4343593;33;20063;-30
2021/05/16 00:02:26;;;;;;;10.57;2.03;;;27.20;26.80;;;;;;4343588;33;20066;-31
2021/05/16 00:04:53;;;;;;;3.85;1.73;;;27.20;26.70;;;;;;4296705;33;20150;-30
2021/05/16 00:07:19;;;;;;;4.53;2.00;;;27.20;27.00;;;;;;4297155;33;20066;-31
2021/05/16 00:09:46;;;;;;;4.82;2.10;;;27.20;27.40;;;;;;4297222;33;20080;-35
2021/05/16 00:12:13;;;;;;;4.87;2.28;;;27.20;27.20;;;;;;4297136;33;20080;-33
2021/05/16 00:14:40;;;;;;;8.95;2.28;;;27.20;27.20;;;;;;4296725;33;20531;-33
2021/05/16 00:17:06;;;;;;;4.82;2.20;;;27.10;27.20;;;;;;4296809;33;20083;-33
2021/05/16 00:19:33;;;;;;;5.32;1.98;;;27.10;27.20;;;;;;4296817;33;20162;-32
2021/05/16 00:22:00;;;;;;;4.72;1.85;;;27.00;27.20;;;;;;4296899;33;20068;-34
2021/05/16 00:24:27;;;;;;;8.55;2.33;;;27.00;27.00;;;;;;4296896;33;20064;-33
2021/05/16 00:26:53;;;;;;;6.37;3.10;;;26.90;26.90;;;;;;4296415;33;20060;-33
2021/05/16 00:29:19;;;;;;;5.55;1.98;;;26.90;26.90;;;;;;4296676;33;20173;-31
2021/05/16 00:31:46;;;;;;;5.15;1.90;;;26.80;27.00;;;;;;4297023;33;20075;-36
2021/05/16 00:34:12;;;;;;;8.35;2.10;;;26.70;27.10;;;;;;4296588;33;20079;-37
2021/05/16 00:36:39;;;;;;;6.30;1.77;;;26.60;27.20;;;;;;4334402;33;20094;-34
2021/05/16 00:39:06;;;;;;;9.75;2.35;;;26.60;27.30;;;;;;4343354;33;20090;-36
2021/05/16 00:41:32;;;;;;;6.43;2.10;;;26.50;27.30;;;;;;4329501;33;20055;-35
2021/05/16 00:43:58;;;;;;;5.85;2.47;;;26.50;27.40;;;;;;4343503;33;20058;-37
2021/05/16 00:46:25;;;;;;;5.87;2.30;;;26.50;27.30;;;;;;4329121;33;20109;-36
2021/05/16 00:48:51;;;;;;;8.52;2.05;;;26.50;27.30;;;;;;4342832;33;20471;-36
2021/05/16 00:51:18;;;;;;;4.07;1.65;;;26.50;27.30;;;;;;4343244;33;20557;-35
2021/05/16 00:53:45;;;;;;;4.47;1.77;;;26.50;27.30;;;;;;4343062;33;20213;-35
2021/05/16 00:56:11;;;;;;;7.20;2.42;;;26.60;27.30;;;;;;4329212;33;20094;-37
2021/05/16 00:58:38;;;;;;;8.13;1.98;;;26.60;27.30;;;;;;4342657;32;20151;-35
2021/05/16 01:01:08;;;;;;;7.15;2.03;;;26.70;27.30;;;;;;4357993;32;20078;-30
2021/05/16 01:03:35;;;;;;;5.82;1.85;;;26.70;27.30;;;;;;4357757;32;20070;-31
2021/05/16 01:06:01;;;;;;;6.07;1.65;;;26.70;27.40;;;;;;4357914;32;20159;-30
2021/05/16 01:08:28;;;;;;;7.07;2.67;;;26.70;27.40;;;;;;4343937;32;20069;-31
2021/05/16 01:10:54;;;;;;;4.32;1.42;;;26.70;27.40;;;;;;4358097;32;20066;-32
2021/05/16 01:13:21;;;;;;;7.65;1.67;;;26.70;27.40;;;;;;4357841;32;20063;-31
2021/05/16 01:15:47;;;;;;;6.22;2.30;;;26.70;27.30;;;;;;4357945;32;20098;-32
2021/05/16 01:18:14;;;;;;;5.03;1.95;;;26.70;27.40;;;;;;4357826;32;20063;-30
2021/05/16 01:20:43;;;;;;;9.48;2.35;;;26.80;27.40;;;;;;4357599;32;20129;-31
2021/05/16 01:23:11;;;;;;;8.18;2.47;;;26.90;27.50;;;;;;4357580;32;20078;-31
2021/05/16 01:25:48;;;;;;;7.82;2.78;;;26.90;27.30;;;;;;4357700;32;20075;-32
2021/05/16 01:28:17;;;;;;;10.43;2.08;;;27.00;27.30;;;;;;4357551;32;20063;-32
2021/05/16 01:30:44;;;;;;;11.25;2.30;;;27.10;27.30;;;;;;4357502;32;20086;-35
2021/05/16 01:33:13;;;;;;;11.77;2.97;;;27.20;27.20;;;;;;4357754;32;20085;-32
2021/05/16 01:35:40;;;;;;;6.78;2.50;;;27.30;27.10;;;;;;4344052;32;20071;-31
2021/05/16 01:38:07;;;;;;;5.90;2.40;;;27.40;27.00;;;;;;4357264;32;20549;-31
2021/05/16 01:40:35;;;;;;;13.25;2.30;;;27.60;26.80;;;;;;4359135;32;20548;-31
2021/05/16 01:43:02;;;;;;;13.65;2.12;;;27.80;26.70;;;;;;4360158;32;20082;-32
2021/05/16 01:45:29;;;;;;;8.23;2.67;;;28.00;26.50;;;;;;4360135;32;20089;-31
2021/05/16 01:47:57;;;;;;;10.23;2.40;;;28.20;26.40;;;;;;4360327;32;20086;-31
2021/05/16 01:50:32;;;;;;;13.48;3.28;;;28.50;26.20;;;;;;4360414;32;20140;-31
2021/05/16 01:53:00;;;;;;;14.82;2.55;;;28.70;26.20;;;;;;4346671;32;20050;-31
2021/05/16 01:55:26;;;;;;;5.45;1.98;;;29.00;26.30;;;;;;4359985;32;20090;-31
2021/05/16 01:57:53;;;;;;;16.70;3.53;;;29.20;26.40;;;;;;4351052;32;20071;-35
2021/05/16 02:00:38;;;;;;;12.23;2.95;;;29.50;25.90;;;;;;4345212;33;20063;-30
2021/05/16 02:03:04;;;;;;;13.38;2.08;;;29.90;25.90;;;;;;4331997;33;20165;-30
2021/05/16 02:05:31;;;;;;;11.40;3.28;;;30.10;25.80;;;;;;4345267;33;20062;-30
2021/05/16 02:07:59;;;;;;;13.73;2.72;;;30.40;26.00;;;;;;4331303;33;20067;-30
2021/05/16 02:10:25;;;;;;;8.65;2.92;;;30.70;25.60;;;;;;4345248;33;20069;-30
2021/05/16 02:12:52;;;;;;;15.15;2.67;;;31.00;25.30;;;;;;4344822;33;20133;-34
2021/05/16 02:15:18;;;;;;;15.57;2.72;;;31.20;24.70;;;;;;4344957;33;20055;-31
2021/05/16 02:17:45;;;;;;;17.80;3.67;;;31.60;24.80;;;;;;4344548;33;20471;-32
2021/05/16 02:20:16;;;;;;;14.07;3.97;;;31.80;24.70;;;;;;4344404;33;20620;-32
2021/05/16 02:22:43;;;;;;;6.87;2.78;;;32.10;24.70;;;;;;4345137;33;20058;-35
2021/05/16 02:25:11;;;;;;;12.75;3.10;;;32.30;24.60;;;;;;4344878;33;20063;-30
2021/05/16 02:27:37;;;;;;;6.50;2.12;;;32.60;24.60;;;;;;4344656;33;20448;-30
2021/05/16 02:30:05;;;;;;;13.40;2.50;;;32.70;24.30;;;;;;4344563;33;20134;-29
2021/05/16 02:32:32;;;;;;;9.65;2.60;;;33.00;24.00;;;;;;4344211;33;20066;-30
2021/05/16 02:34:58;;;;;;;14.20;2.75;;;33.20;23.80;;;;;;4344362;33;20160;-30
2021/05/16 02:37:25;;;;;;;16.50;3.10;;;33.40;23.70;;;;;;4331084;33;20079;-32
2021/05/16 02:39:51;;;;;;;24.08;3.42;;;33.60;23.80;;;;;;4344836;33;20090;-33
2021/05/16 02:42:17;;;;;;;14.70;3.58;;;33.70;24.00;;;;;;4344170;33;20098;-36
2021/05/16 02:44:44;;;;;;;13.77;2.83;;;33.90;23.40;;;;;;4344158;33;20094;-31
2021/05/16 02:47:11;;;;;;;19.87;3.00;;;34.00;23.30;;;;;;4344517;33;20455;-31
2021/05/16 02:49:37;;;;;;;13.98;3.40;;;34.20;23.40;;;;;;4330667;33;20086;-31
2021/05/16 02:52:04;;;;;;;14.68;2.83;;;34.40;23.30;;;;;;4344288;33;20147;-32
2021/05/16 02:54:30;;;;;;;14.82;3.65;;;34.50;23.40;;;;;;4344254;33;20139;-34
2021/05/16 02:56:56;;;;;;;12.85;2.90;;;34.70;23.40;;;;;;4347594;32;20590;-35
2021/05/16 02:59:25;;;;;;;15.82;3.15;;;34.90;23.40;;;;;;4359145;32;20059;-35
2021/05/16 03:01:51;;;;;;;13.23;2.37;;;35.00;23.30;;;;;;4359212;32;20149;-34
2021/05/16 03:04:18;;;;;;;19.08;2.92;;;35.20;23.20;;;;;;4358906;32;20074;-35
2021/05/16 03:06:44;;;;;;;13.48;2.53;;;35.40;23.00;;;;;;4358866;32;20082;-35
2021/05/16 03:09:11;;;;;;;17.98;2.60;;;35.50;23.00;;;;;;4358806;32;20143;-35
2021/05/16 03:11:37;;;;;;;12.88;2.95;;;35.60;22.50;;;;;;4358670;32;20145;-33
2021/05/16 03:14:04;;;;;;;9.85;2.83;;;35.80;22.50;;;;;;4358692;32;20175;-32
2021/05/16 03:16:30;;;;;;;12.57;2.35;;;36.00;22.30;;;;;;4358831;32;20150;-29
2021/05/16 03:18:57;;;;;;;13.90;3.37;;;36.30;22.10;;;;;;4358747;32;20094;-31
2021/05/16 03:21:23;;;;;;;17.75;2.75;;;36.50;22.30;;;;;;4358650;32;20070;-31
2021/05/16 03:23:50;;;;;;;12.77;2.35;;;36.70;22.30;;;;;;4358753;32;20578;-32
2021/05/16 03:26:16;;;;;;;14.13;2.55;;;36.90;22.20;;;;;;4358468;32;20156;-30
2021/05/16 03:28:43;;;;;;;8.45;2.55;;;37.10;21.80;;;;;;4358340;32;20482;-30
2021/05/16 03:31:09;;;;;;;10.43;2.53;;;37.40;21.70;;;;;;4358861;32;20063;-30
2021/05/16 03:33:36;;;;;;;20.12;2.70;;;37.60;21.70;;;;;;4358601;32;20085;-32
2021/05/16 03:36:02;;;;;;;8.57;2.40;;;37.90;21.30;;;;;;4358625;32;20100;-30
2021/05/16 03:38:29;;;;;;;18.33;3.20;;;38.10;21.30;;;;;;4358665;32;20070;-29
2021/05/16 03:40:55;;;;;;;11.65;2.08;;;38.40;21.20;;;;;;4358836;32;20069;-30
2021/05/16 03:43:22;;;;;;;13.82;2.05;;;38.50;20.90;;;;;;4358450;32;20070;-30
2021/05/16 03:45:49;;;;;;;12.95;1.73;;;38.80;20.80;;;;;;4358289;32;20074;-32
2021/05/16 03:48:16;;;;;;;10.07;2.00;;;38.90;20.70;;;;;;4358083;32;20062;-32
2021/05/16 03:50:42;;;;;;;14.98;3.20;;;39.10;20.50;;;;;;4358158;32;20161;-31
2021/05/16 03:53:08;;;;;;;20.02;2.37;;;39.30;20.30;;;;;;4358107;32;20077;-36
2021/05/16 03:55:35;;;;;;;15.43;2.10;;;39.50;20.30;;;;;;4357998;32;20070;-38
2021/05/16 03:58:01;;;;;;;15.02;2.30;;;39.60;20.20;;;;;;4348184;32;20066;-34
2021/05/16 04:00:28;;;;;;;17.83;2.72;;;39.70;20.10;;;;;;4329849;33;20596;-36
2021/05/16 04:02:54;;;;;;;19.35;3.50;;;39.80;20.00;;;;;;4342820;33;20069;-31
2021/05/16 04:05:21;;;;;;;21.12;3.25;;;40.00;20.20;;;;;;4317417;33;20062;-31
2021/05/16 04:07:49;;;;;;;15.18;2.17;;;40.10;20.10;;;;;;4343066;33;20569;-30
2021/05/16 04:10:15;;;;;;;17.48;2.47;;;40.10;20.20;;;;;;4343375;33;20450;-31
2021/05/16 04:12:42;;;;;;;21.90;2.65;;;40.10;20.10;;;;;;4343430;33;20078;-31
2021/05/16 04:15:09;;;;;;;19.00;3.60;;;40.10;20.10;;;;;;4343145;33;20063;-32
2021/05/16 04:17:35;;;;;;;15.57;2.55;;;40.00;20.10;;;;;;4343593;33;20168;-32
2021/05/16 04:20:03;;;;;;;12.93;2.60;;;40.10;20.30;;;;;;4343586;33;20164;-30
2021/05/16 04:22:29;;;;;;;14.50;2.67;;;40.10;20.40;;;;;;4343547;33;20139;-31
2021/05/16 04:24:56;;;;;;;14.48;2.53;;;40.20;19.90;;;;;;4343323;33;20054;-32
2021/05/16 04:27:22;;;;;;;15.80;2.42;;;40.30;20.50;;;;;;4343438;33;20078;-31
2021/05/16 04:29:49;;;;;;;16.80;3.65;;;40.50;19.90;;;;;;4343121;33;20078;-30
2021/05/16 04:32:15;;;;;;;21.17;3.53;;;40.70;19.90;;;;;;4342994;33;20559;-31
2021/05/16 04:34:41;;;;;;;14.90;4.35;;;40.90;20.10;;;;;;4342665;33;20490;-31
2021/05/16 04:37:08;;;;;;;18.87;2.97;;;41.10;19.80;;;;;;4343042;33;20085;-31
2021/05/16 04:39:35;;;;;;;18.27;2.47;;;41.20;19.50;;;;;;4342829;33;20047;-30
2021/05/16 04:42:01;;;;;;;17.80;2.00;;;41.40;19.50;;;;;;4343178;33;20058;-32
2021/05/16 04:44:28;;;;;;;11.18;2.00;;;41.50;19.50;;;;;;4342817;33;20126;-34
2021/05/16 04:46:54;;;;;;;23.58;3.28;;;41.60;19.30;;;;;;4342989;33;20090;-30
2021/05/16 04:49:21;;;;;;;20.42;2.92;;;41.80;19.20;;;;;;4342901;33;20069;-31
2021/05/16 04:51:47;;;;;;;15.65;4.00;;;41.90;19.20;;;;;;4342801;33;20514;-31
2021/05/16 04:54:14;;;;;;;21.33;2.87;;;41.90;19.20;;;;;;4343139;33;20062;-31
2021/05/16 04:56:40;;;;;;;22.80;3.10;;;42.00;19.30;;;;;;4344188;32;20052;-31
2021/05/16 04:59:07;;;;;;;11.95;2.42;;;42.00;19.50;;;;;;4357937;32;20071;-32
2021/05/16 05:01:34;;;;;;;16.80;2.90;;;42.10;19.40;;;;;;4357829;32;20062;-31
2021/05/16 05:04:01;;;;;;;13.90;3.20;;;42.10;19.20;;;;;;4343986;32;20540;-31
2021/05/16 05:06:29;;;;;;;14.63;2.20;;;42.30;19.20;;;;;;4344001;32;20069;-32
2021/05/16 05:08:58;;;;;;;21.80;2.50;;;42.30;19.40;;;;;;4357626;32;20572;-31
2021/05/16 05:11:24;;;;;;;25.05;2.97;;;42.30;19.10;;;;;;4310463;33;20075;-32
2021/05/16 05:13:51;;;;;;;16.20;3.50;;;42.30;19.40;;;;;;4312030;33;20151;-33
2021/05/16 05:16:17;;;;;;;24.50;2.80;;;42.30;19.40;;;;;;4313527;33;20517;-30
2021/05/16 05:18:44;;;;;;;12.63;1.40;;;42.30;19.20;;;;;;4313753;33;20067;-32
2021/05/16 05:21:10;;;;;;;18.17;2.78;;;42.40;19.10;;;;;;4313609;33;20482;-31
2021/05/16 05:23:37;;;;;;;25.05;3.53;;;42.60;19.20;;;;;;4313553;33;20078;-32
2021/05/16 05:26:03;;;;;;;18.25;2.75;;;42.80;19.20;;;;;;4313714;33;20055;-31
2021/05/16 05:28:30;;;;;;;18.80;2.78;;;42.90;19.10;;;;;;4313555;33;20166;-31
2021/05/16 05:30:56;;;;;;;19.05;2.55;;;43.10;19.10;;;;;;4313311;33;20082;-31
2021/05/16 05:33:23;;;;;;;10.30;2.67;;;43.20;19.00;;;;;;4313542;33;20170;-32
2021/05/16 05:35:51;;;;;;;22.65;4.00;;;43.30;19.00;;;;;;4313233;33;20565;-31
2021/05/16 05:38:17;;;;;;;16.73;2.95;;;43.30;19.10;;;;;;4313520;33;20328;-32
2021/05/16 05:40:44;;;;;;;25.05;3.12;;;43.40;19.00;;;;;;4313111;33;20067;-31
2021/05/16 05:43:11;;;;;;;21.37;2.10;;;43.60;19.00;;;;;;4351404;32;20078;-33
2021/05/16 05:45:38;;;;;;;20.27;2.53;;;43.70;19.00;;;;;;4360343;32;20443;-30
2021/05/16 05:48:05;;;;;;;17.50;3.53;;;43.80;18.90;;;;;;4359946;32;20059;-30
2021/05/16 05:50:31;;;;;;;21.05;3.22;;;43.90;18.90;;;;;;4360116;32;20070;-33
2021/05/16 05:53:02;;;;;;;20.27;2.55;;;44.10;19.00;;;;;;4359848;32;20190;-34
2021/05/16 05:55:30;;;;;;;18.77;3.15;;;44.20;19.00;;;;;;4359773;32;20083;-32
2021/05/16 05:57:57;;;;;;;20.35;2.37;;;44.20;18.90;;;;;;4349804;32;20510;-31
2021/05/16 06:00:24;;;;;;;16.45;2.42;;;44.40;18.80;;;;;;4331005;33;20059;-31
2021/05/16 06:02:51;;;;;;;22.55;2.70;;;44.50;18.80;;;;;;4344830;33;20468;-30
2021/05/16 06:05:17;;;;;;;20.33;2.65;;;44.60;18.80;;;;;;4345002;33;20065;-30
2021/05/16 06:07:44;;;;;;;19.62;2.80;;;44.80;18.70;;;;;;4344724;33;20073;-32
2021/05/16 06:10:11;;;;;;;14.93;2.72;;;45.00;18.50;;;;;;4344935;33;20064;-31
2021/05/16 06:12:38;;;;;;;17.92;2.33;;;45.10;18.50;;;;;;4331166;33;20063;-31
2021/05/16 06:15:05;;;;;;;23.67;2.85;;;45.30;18.50;;;;;;4344526;33;20060;-32
2021/05/16 06:17:32;;;;;;;13.18;2.15;;;45.30;18.30;;;;;;4330721;33;20092;-31
2021/05/16 06:19:58;;;;;;;25.60;3.08;;;45.40;18.40;;;;;;4344742;33;20082;-32
2021/05/16 06:22:24;;;;;;;26.35;2.97;;;45.40;18.40;;;;;;4344880;33;20062;-30
2021/05/16 06:24:51;;;;;;;17.27;2.47;;;45.50;18.50;;;;;;4344216;32;20063;-30
2021/05/16 06:27:17;;;;;;;21.25;2.45;;;45.50;18.40;;;;;;4344453;33;20055;-31
2021/05/16 06:29:44;;;;;;;19.50;2.87;;;45.60;18.40;;;;;;4344250;33;20432;-31
2021/05/16 06:32:11;;;;;;;19.25;3.08;;;45.70;18.50;;;;;;4344390;33;20504;-32
2021/05/16 06:34:37;;;;;;;31.20;3.55;;;45.80;18.60;;;;;;4345137;33;20051;-31
2021/05/16 06:37:04;;;;;;;23.62;5.53;;;45.90;18.50;;;;;;4344364;33;20556;-31
2021/05/16 06:39:31;;;;;;;21.20;2.80;;;46.00;18.40;;;;;;4344261;33;20079;-31
2021/05/16 06:41:58;;;;;;;17.35;3.62;;;46.10;18.50;;;;;;4344364;33;20069;-31
2021/05/16 06:44:25;;;;;;;17.83;2.60;;;46.10;18.40;;;;;;4344179;33;20620;-31
2021/05/16 06:46:51;;;;;;;27.83;3.10;;;46.20;18.40;;;;;;4331028;33;20073;-30
2021/05/16 06:49:18;;;;;;;18.52;2.75;;;46.30;18.40;;;;;;4344501;33;20066;-31
2021/05/16 06:51:44;;;;;;;22.75;2.95;;;46.30;18.10;;;;;;4344035;33;20568;-31
2021/05/16 06:54:11;;;;;;;20.42;3.58;;;46.40;18.20;;;;;;4344341;33;20071;-34
2021/05/16 06:56:38;;;;;;;22.25;3.03;;;46.50;18.20;;;;;;4345239;32;20142;-32
2021/05/16 06:59:04;;;;;;;20.35;2.60;;;46.60;18.30;;;;;;4359376;32;20075;-35
2021/05/16 07:01:32;;;;;;;26.55;3.55;;;46.70;18.10;;;;;;4345581;32;20070;-31
2021/05/16 07:03:58;;;;;;;14.23;2.87;;;46.90;18.10;;;;;;4359124;32;20545;-31
2021/05/16 07:06:27;;;;;;;24.92;2.58;;;46.90;18.00;;;;;;4358996;32;20089;-34
2021/05/16 07:08:54;;;;;;;22.70;2.00;;;46.90;18.10;;;;;;4358803;32;20078;-35
2021/05/16 07:11:20;;;;;;;27.80;3.95;;;46.90;17.90;;;;;;4358975;32;20051;-31
2021/05/16 07:13:47;;;;;;;23.90;3.37;;;46.90;17.90;;;;;;4358885;32;20090;-31
2021/05/16 07:16:13;;;;;;;20.77;3.47;;;46.70;17.70;;;;;;4358418;32;20489;-33
2021/05/16 07:18:41;;;;;;;19.15;3.78;;;46.50;18.00;;;;;;4358498;32;20431;-31
2021/05/16 07:21:07;;;;;;;27.23;3.75;;;46.30;17.90;;;;;;4345031;32;20050;-31
2021/05/16 07:23:34;;;;;;;25.10;2.72;;;46.20;18.00;;;;;;4358178;32;20165;-30
2021/05/16 07:26:00;;;;;;;23.30;3.10;;;46.20;18.20;;;;;;4358333;32;20078;-31
2021/05/16 07:28:27;;;;;;;23.35;3.03;;;46.00;18.30;;;;;;4358276;32;20062;-33
2021/05/16 07:30:53;;;;;;;22.65;2.87;;;46.00;18.00;;;;;;4358014;32;20182;-31
2021/05/16 07:33:20;;;;;;;22.20;2.92;;;46.10;18.10;;;;;;4358729;32;20509;-32
2021/05/16 07:35:46;;;;;;;19.45;2.92;;;46.00;18.10;;;;;;4358780;32;20158;-30
2021/05/16 07:38:13;;;;;;;24.95;3.00;;;46.00;18.20;;;;;;4358651;32;20082;-31
2021/05/16 07:40:39;;;;;;;21.23;3.80;;;45.80;18.30;;;;;;4344393;32;20142;-30
2021/05/16 07:43:07;;;;;;;15.32;2.65;;;45.70;18.30;;;;;;4358589;32;20074;-30
2021/05/16 07:45:34;;;;;;;22.05;2.20;;;45.60;18.40;;;;;;4358198;32;20062;-31
2021/05/16 07:48:01;;;;;;;24.27;2.62;;;45.60;18.30;;;;;;4358556;32;20066;-31
2021/05/16 07:50:27;;;;;;;16.83;2.30;;;45.60;18.40;;;;;;4358235;32;20527;-31
2021/05/16 07:52:53;;;;;;;21.35;3.47;;;45.70;18.40;;;;;;4358184;32;20089;-32
2021/05/16 07:55:20;;;;;;;13.25;2.08;;;45.80;18.40;;;;;;4358464;32;20078;-31
2021/05/16 07:57:48;;;;;;;15.75;2.75;;;45.90;18.30;;;;;;4350302;32;20074;-30
2021/05/16 08:00:15;;;;;;;16.50;1.87;;;46.10;18.40;;;;;;4343578;33;20066;-33
2021/05/16 08:02:42;;;;;;;14.05;2.40;;;46.30;18.30;;;;;;4343594;33;20067;-33
2021/05/16 08:05:10;;;;;;;15.85;3.33;;;46.60;18.20;;;;;;4343312;33;20070;-33
2021/05/16 08:07:37;;;;;;;19.37;3.70;;;46.80;18.20;;;;;;4329555;33;20127;-30
2021/05/16 08:10:06;;;;;;;12.30;2.42;;;47.00;18.10;;;;;;4343102;33;20078;-31
2021/05/16 08:12:33;;;;;;;14.35;2.20;;;47.20;18.10;;;;;;4343507;33;20067;-33
2021/05/16 08:14:59;;;;;;;10.98;1.73;;;47.20;18.30;;;;;;4343154;33;20069;-31
2021/05/16 08:17:26;;;;;;;10.23;1.70;;;47.30;18.20;;;;;;4343059;33;20070;-30
2021/05/16 08:19:52;;;;;;;13.15;3.33;;;47.40;18.20;;;;;;4342768;33;20136;-32
2021/05/16 08:22:20;;;;;;;12.43;1.90;;;47.50;18.30;;;;;;4343419;33;20055;-30
2021/05/16 08:24:47;;;;;;;8.55;1.95;;;47.50;18.30;;;;;;4342993;33;20598;-33
2021/05/16 08:27:13;;;;;;;11.00;1.77;;;47.60;18.50;;;;;;4342928;33;20105;-31
2021/05/16 08:29:39;;;;;;;12.90;2.10;;;47.60;18.20;;;;;;4342767;33;20066;-31
2021/05/16 08:32:07;;;;;;;10.52;2.30;;;47.60;18.40;;;;;;4342942;33;20089;-30
2021/05/16 08:34:34;;;;;;;12.25;2.67;;;47.60;18.80;;;;;;4343014;33;20475;-32
2021/05/16 08:37:03;;;;;;;16.00;2.72;;;47.50;19.00;;;;;;4329265;33;20081;-31
2021/05/16 08:39:30;;;;;;;7.80;1.98;;;47.30;18.90;;;;;;4342589;33;20079;-31
2021/05/16 08:41:56;;;;;;;13.85;2.83;;;47.10;19.10;;;;;;4342804;33;20186;-33
2021/05/16 08:44:23;;;;;;;10.90;2.25;;;46.90;19.10;;;;;;4342681;33;20096;-30
2021/05/16 08:46:51;;;;;;;9.07;2.30;;;46.50;18.80;;;;;;4328807;33;20166;-33
2021/05/16 08:49:18;;;;;;;10.55;2.22;;;46.00;19.20;;;;;;4344862;32;20100;-32
2021/05/16 08:51:45;;;;;;;13.82;2.20;;;45.40;19.40;;;;;;4346192;33;20063;-35
2021/05/16 08:54:19;;;;;;;19.58;2.22;;;44.80;19.20;;;;;;4346225;33;20089;-35
2021/05/16 08:56:51;;;;;;;18.10;2.42;;;44.40;19.30;;;;;;4348108;32;20542;-31
2021/05/16 08:59:20;;;;;;;12.43;2.08;;;43.90;19.60;;;;;;4361134;32;20153;-32
2021/05/16 09:01:55;;;;;;;12.48;2.15;;;43.60;19.60;;;;;;4360647;32;20070;-31
2021/05/16 09:04:38;;;;;;;13.50;2.90;;;43.50;19.70;;;;;;4360397;32;20136;-32
2021/05/16 09:07:05;;;;;;;11.57;2.00;;;43.40;19.80;;;;;;4360445;32;20066;-30
2021/05/16 09:09:41;;;;;;;15.35;2.30;;;43.40;19.70;;;;;;4346457;32;20591;-34
2021/05/16 09:12:14;;;;;;;17.62;1.98;;;43.30;19.60;;;;;;4360640;32;20140;-30
2021/05/16 09:14:51;;;;;;;14.57;2.77;;;43.10;19.70;;;;;;4360675;32;20083;-30
2021/05/16 09:17:36;;;;;;;18.00;3.08;;;42.90;19.80;;;;;;4360825;32;20071;-30
2021/05/16 09:20:10;;;;;;;11.05;2.67;;;42.70;19.90;;;;;;4360736;32;20142;-32
2021/05/16 09:22:45;;;;;;;13.82;3.15;;;42.50;19.80;;;;;;4360539;32;20081;-32
2021/05/16 09:25:31;;;;;;;27.55;3.25;;;42.40;19.70;;;;;;4360640;32;20072;-30
2021/05/16 09:28:14;;;;;;;10.13;1.92;;;42.20;19.80;;;;;;4346994;32;20058;-33
2021/05/16 09:30:41;;;;;;;18.92;2.42;;;42.10;19.70;;;;;;4360290;32;20086;-33
2021/05/16 09:33:13;;;;;;;25.80;4.20;;;42.10;19.60;;;;;;4360000;32;20104;-30
2021/05/16 09:35:43;;;;;;;20.35;1.75;;;42.20;19.40;;;;;;4360541;32;20078;-32
2021/05/16 09:38:15;;;;;;;20.92;1.87;;;42.20;19.40;;;;;;4360382;32;20055;-31
2021/05/16 09:40:53;;;;;;;24.80;2.30;;;42.00;19.30;;;;;;4359996;32;20075;-31
2021/05/16 09:43:24;;;;;;;12.70;2.70;;;41.90;19.20;;;;;;4346569;32;20149;-30
2021/05/16 09:45:55;;;;;;;16.12;2.22;;;41.90;19.60;;;;;;4360428;32;20090;-33
2021/05/16 09:48:41;;;;;;;14.90;1.75;;;42.20;19.40;;;;;;4360213;32;20150;-31
2021/05/16 09:51:22;;;;;;;14.30;1.70;;;42.40;19.10;;;;;;4360164;32;20130;-31
2021/05/16 09:54:11;;;;;;;16.25;2.10;;;42.60;19.10;;;;;;4360327;32;20121;-30
2021/05/16 09:56:39;;;;;;;18.27;1.77;;;42.80;19.10;;;;;;4358296;32;20547;-30
2021/05/16 09:59:08;;;;;;;11.75;2.05;;;42.90;18.60;;;;;;4345043;33;20504;-32
2021/05/16 10:01:35;;;;;;;16.12;2.00;;;42.90;18.70;;;;;;4343932;33;20087;-32
2021/05/16 10:04:03;;;;;;;18.55;2.42;;;42.90;18.80;;;;;;4345083;33;20073;-31
2021/05/16 10:06:30;;;;;;;15.15;1.60;;;43.00;18.90;;;;;;4331197;33;20490;-31
2021/05/16 10:08:56;;;;;;;16.83;1.87;;;43.20;18.70;;;;;;4331133;33;20055;-32
2021/05/16 10:11:25;;;;;;;14.00;1.35;;;43.20;18.50;;;;;;4344714;33;20070;-37
2021/05/16 10:14:02;;;;;;;9.65;1.48;;;43.30;18.40;;;;;;4331395;33;20081;-36
2021/05/16 10:16:39;;;;;;;14.93;2.20;;;43.50;18.30;;;;;;4331984;33;21022;-34
2021/05/16 10:19:05;;;;;;;11.50;1.08;;;43.60;18.50;;;;;;4330841;33;20111;-37
2021/05/16 10:21:32;;;;;;;14.02;1.65;;;43.80;18.70;;;;;;4330882;33;20601;-31
2021/05/16 10:24:15;;;;;;;13.10;1.48;;;44.00;18.70;;;;;;4344780;33;20065;-34
2021/05/16 10:26:42;;;;;;;9.02;2.35;;;44.20;18.60;;;;;;4331752;33;20493;-31
2021/05/16 10:29:10;;;;;;;9.27;0.80;;;44.30;18.10;;;;;;4330736;33;20066;-31
2021/05/16 10:31:44;;;;;;;10.85;1.17;;;44.20;18.10;;;;;;4344614;33;20077;-29
2021/05/16 10:34:28;;;;;;;10.63;0.98;;;44.00;18.10;;;;;;4344534;33;20506;-30
2021/05/16 10:36:59;;;;;;;9.02;0.90;;;43.90;18.20;;;;;;4344810;33;20077;-31
2021/05/16 10:39:43;;;;;;;10.27;1.23;;;43.80;18.20;;;;;;4344272;33;20066;-30
2021/05/16 10:42:23;;;;;;;15.57;2.05;;;43.60;18.50;;;;;;4344545;33;20078;-29
2021/05/16 10:45:06;;;;;;;9.63;1.25;;;43.30;18.70;;;;;;4344612;33;20537;-31
2021/05/16 10:47:46;;;;;;;9.60;1.50;;;42.90;19.00;;;;;;4344488;33;20054;-32
2021/05/16 10:50:25;;;;;;;9.43;1.50;;;42.60;18.80;;;;;;4344139;33;20645;-30
2021/05/16 10:53:16;;;;;;;19.30;2.35;;;42.40;18.70;;;;;;4344562;33;20077;-32
2021/05/16 10:55:48;;;;;;;11.27;1.62;;;42.40;18.70;;;;;;4344133;33;20452;-31
2021/05/16 10:58:33;;;;;;;8.63;1.48;;;42.20;18.80;;;;;;4355338;32;20082;-30
2021/05/16 11:01:15;;;;;;;13.23;1.35;;;42.10;18.90;;;;;;4359132;32;20141;-32
2021/05/16 11:03:45;;;;;;;23.75;2.72;;;41.90;19.00;;;;;;4358478;32;20182;-30
2021/05/16 11:06:13;;;;;;;9.15;1.25;;;41.70;18.90;;;;;;4359184;32;20166;-30
2021/05/16 11:08:39;;;;;;;14.87;1.42;;;41.60;18.90;;;;;;4358803;32;20050;-31
2021/05/16 11:11:37;;;;;;;11.32;1.60;;;41.50;19.00;;;;;;4358721;32;20066;-31
2021/05/16 11:14:33;;;;;;;20.42;2.08;;;41.40;19.20;;;;;;4358592;32;20054;-37
2021/05/16 11:17:05;;;;;;;17.42;1.73;;;41.30;19.20;;;;;;4358562;32;20078;-30
2021/05/16 11:19:36;;;;;;;17.70;2.58;;;41.20;18.90;;;;;;4359012;32;20080;-30
2021/05/16 11:22:16;;;;;;;22.62;2.17;;;41.20;19.00;;;;;;4358334;32;20086;-31
2021/05/16 11:24:45;;;;;;;19.52;2.15;;;41.10;19.00;;;;;;4358546;32;20477;-33
2021/05/16 11:27:29;;;;;;;9.93;1.48;;;40.90;18.70;;;;;;4359113;32;20153;-30
2021/05/16 11:30:07;;;;;;;12.50;1.67;;;40.60;19.10;;;;;;4358978;32;20067;-32
2021/05/16 11:32:34;;;;;;;16.83;2.85;;;40.30;19.20;;;;;;4358527;32;20142;-32
2021/05/16 11:35:12;;;;;;;18.12;2.33;;;40.00;19.40;;;;;;4358542;32;20077;-30
2021/05/16 11:37:39;;;;;;;11.85;1.40;;;39.80;19.70;;;;;;4358653;32;20050;-31
2021/05/16 11:40:37;;;;;;;17.67;1.27;;;39.60;19.60;;;;;;4358396;32;20081;-31
2021/05/16 11:43:06;;;;;;;13.70;1.77;;;39.40;19.60;;;;;;4297376;33;20099;-30
2021/05/16 11:45:40;;;;;;;22.52;2.47;;;39.30;19.60;;;;;;4297256;33;20095;-30
2021/05/16 11:48:32;;;;;;;14.50;1.62;;;39.20;19.80;;;;;;4297127;33;20091;-31
2021/05/16 11:51:17;;;;;;;17.83;2.87;;;38.90;20.40;;;;;;4287427;33;20083;-30
2021/05/16 11:53:53;;;;;;;18.42;1.62;;;38.70;20.10;;;;;;4297291;33;20071;-31
2021/05/16 11:56:34;;;;;;;18.65;2.25;;;38.60;20.20;;;;;;4297331;33;20086;-31
2021/05/16 11:59:01;;;;;;;16.60;2.53;;;38.40;20.10;;;;;;4282268;33;20071;-30
2021/05/16 12:01:29;;;;;;;14.20;1.95;;;38.10;20.10;;;;;;4282825;33;20076;-30
2021/05/16 12:04:08;;;;;;;14.55;1.75;;;38.00;20.00;;;;;;4282552;33;20099;-33
2021/05/16 12:06:54;;;;;;;19.92;2.45;;;37.90;19.90;;;;;;4282798;33;20190;-31
2021/05/16 12:09:22;;;;;;;12.65;2.03;;;37.80;20.00;;;;;;4282584;33;20208;-33
2021/05/16 12:11:55;;;;;;;21.98;2.00;;;37.60;20.10;;;;;;4282254;33;20170;-30
2021/05/16 12:14:23;;;;;;;12.40;1.65;;;37.50;20.10;;;;;;4270043;33;20068;-30
2021/05/16 12:17:01;;;;;;;12.88;1.77;;;37.50;20.20;;;;;;4282362;33;20663;-32
2021/05/16 12:19:40;;;;;;;17.67;1.10;;;37.40;19.70;;;;;;4313186;33;20083;-32
2021/05/16 12:22:12;;;;;;;9.38;0.90;;;37.40;19.40;;;;;;4330106;33;20052;-31
2021/05/16 12:24:45;;;;;;;9.65;0.98;;;37.40;19.10;;;;;;4342445;33;20069;-30
2021/05/16 12:27:13;;;;;;;11.95;1.12;;;37.40;18.20;;;;;;4343020;33;20077;-31
2021/05/16 12:29:43;;;;;;;7.70;1.45;;;37.40;18.20;;;;;;4343096;33;20063;-30
2021/05/16 12:32:10;;;;;;;9.07;1.10;;;37.40;17.90;;;;;;4329688;33;20071;-31
2021/05/16 12:34:36;;;;;;;10.70;1.15;;;37.50;18.10;;;;;;4343210;33;20146;-32
2021/05/16 12:37:14;;;;;;;7.50;0.73;;;37.60;17.80;;;;;;4329671;33;20066;-31
2021/05/16 12:39:46;;;;;;;9.10;0.70;;;37.60;17.90;;;;;;4342834;33;20059;-32
2021/05/16 12:42:41;;;;;;;8.65;1.20;;;37.60;17.80;;;;;;4342860;33;20536;-30
2021/05/16 12:45:21;;;;;;;6.95;1.67;;;37.50;17.80;;;;;;4342636;33;20110;-30
2021/05/16 12:48:19;;;;;;;9.00;0.80;;;37.30;18.00;;;;;;4329359;33;20443;-30